createdAt,value
2023-05-10T00:00:41.374Z,99.90
2023-05-10T00:03:08.311Z,99.90
2023-05-10T00:05:35.388Z,99.90
2023-05-10T00:08:02.242Z,99.90
2023-05-10T00:10:29.037Z,99.90
2023-05-10T00:12:55.897Z,99.90
2023-05-10T00:15:22.761Z,99.90
2023-05-10T00:17:49.735Z,99.90
2023-05-10T00:20:17.008Z,99.90
2023-05-10T00:22:44.004Z,99.90
2023-05-10T00:25:11.516Z,99.90
2023-05-10T00:27:38.418Z,99.90
2023-05-10T00:30:05.787Z,99.90
2023-05-10T00:32:32.713Z,99.90
2023-05-10T00:34:59.685Z,99.90
2023-05-10T00:37:26.425Z,99.90
2023-05-10T00:39:53.221Z,99.90
2023-05-10T00:42:20.073Z,99.90
2023-05-10T00:44:47.599Z,99.90
2023-05-10T00:47:14.909Z,99.90
2023-05-10T00:49:42.777Z,99.90
2023-05-10T00:52:10.301Z,99.90
2023-05-10T00:54:37.708Z,99.90
2023-05-10T00:57:04.858Z,99.90
2023-05-10T00:59:31.909Z,99.90
2023-05-10T01:01:59.304Z,99.90
2023-05-10T01:04:29.549Z,99.90
2023-05-10T01:06:56.361Z,99.90
2023-05-10T01:09:23.854Z,99.90
2023-05-10T01:11:51.422Z,99.90
2023-05-10T01:14:20.755Z,99.90
2023-05-10T01:16:49.494Z,99.90
2023-05-10T01:19:30.574Z,99.90
2023-05-10T01:22:18.678Z,99.90
2023-05-10T01:24:59.089Z,99.90
2023-05-10T01:28:07.274Z,99.90
2023-05-10T01:30:55.380Z,99.90
2023-05-10T01:33:43.417Z,99.90
2023-05-10T01:36:20.467Z,99.90
2023-05-10T01:38:56.281Z,99.90
2023-05-10T01:42:01.440Z,99.90
2023-05-10T01:44:38.681Z,99.90
2023-05-10T01:47:21.167Z,99.90
2023-05-10T01:49:54.243Z,99.90
2023-05-10T01:52:30.334Z,99.90
2023-05-10T01:55:02.619Z,99.90
2023-05-10T01:57:36.949Z,99.90
2023-05-10T02:00:05.746Z,99.90
2023-05-10T02:02:38.082Z,99.90
2023-05-10T02:05:09.149Z,99.90
2023-05-10T02:07:38.177Z,99.90
2023-05-10T02:10:08.360Z,99.90
2023-05-10T02:12:44.397Z,99.90
2023-05-10T02:15:14.185Z,99.90
2023-05-10T02:17:43.179Z,99.90
2023-05-10T02:20:11.371Z,99.90
2023-05-10T02:22:39.917Z,99.90
2023-05-10T02:25:10.004Z,99.90
2023-05-10T02:27:38.241Z,99.90
2023-05-10T02:30:06.878Z,99.90
2023-05-10T02:32:35.382Z,99.90
2023-05-10T02:35:04.868Z,99.90
2023-05-10T02:37:33.280Z,99.90
2023-05-10T02:40:00.771Z,99.90
2023-05-10T02:42:28.849Z,99.90
2023-05-10T02:45:01.166Z,99.90
2023-05-10T02:47:29.494Z,99.90
2023-05-10T02:49:56.774Z,99.90
2023-05-10T02:52:28.412Z,99.90
2023-05-10T02:55:03.847Z,99.90
2023-05-10T02:57:34.908Z,99.90
2023-05-10T03:00:04.073Z,99.90
2023-05-10T03:02:32.087Z,99.90
2023-05-10T03:04:59.208Z,99.90
2023-05-10T03:07:26.464Z,99.90
2023-05-10T03:09:53.549Z,99.90
2023-05-10T03:12:47.759Z,99.90
2023-05-10T03:15:51.867Z,99.90
2023-05-10T03:18:30.148Z,99.90
2023-05-10T03:21:02.807Z,99.90
2023-05-10T03:23:44.129Z,99.90
2023-05-10T03:26:14.797Z,99.90
2023-05-10T03:28:42.730Z,99.90
2023-05-10T03:31:10.232Z,99.90
2023-05-10T03:33:37.153Z,99.90
2023-05-10T03:36:04.190Z,99.90
2023-05-10T03:38:31.495Z,99.90
2023-05-10T03:40:58.379Z,99.90
2023-05-10T03:43:25.174Z,99.90
2023-05-10T03:45:51.964Z,99.90
2023-05-10T03:48:18.818Z,99.90
2023-05-10T03:50:45.650Z,99.90
2023-05-10T03:53:13.308Z,99.90
2023-05-10T03:55:40.124Z,99.90
2023-05-10T03:58:06.945Z,99.90
2023-05-10T04:00:33.895Z,99.90
2023-05-10T04:03:00.829Z,99.90
2023-05-10T04:05:27.721Z,99.90
2023-05-10T04:07:54.517Z,99.90
2023-05-10T04:10:22.224Z,99.90
2023-05-10T04:12:49.085Z,99.90
2023-05-10T04:15:16.148Z,99.90
2023-05-10T04:17:43.089Z,99.90
2023-05-10T04:20:10.466Z,99.90
2023-05-10T04:22:37.313Z,99.90
2023-05-10T04:25:04.422Z,99.90
2023-05-10T04:27:32.014Z,99.90
2023-05-10T04:29:58.815Z,99.90
2023-05-10T04:32:25.759Z,99.90
2023-05-10T04:34:52.569Z,99.90
2023-05-10T04:37:19.591Z,99.90
2023-05-10T04:39:46.449Z,99.90
2023-05-10T04:42:13.350Z,99.90
2023-05-10T04:44:40.108Z,99.90
2023-05-10T04:47:06.934Z,99.90
2023-05-10T04:49:33.732Z,99.90
2023-05-10T04:52:00.528Z,99.90
2023-05-10T04:54:27.473Z,99.90
2023-05-10T04:56:54.301Z,99.90
2023-05-10T04:59:21.088Z,99.90
2023-05-10T05:01:50.074Z,99.90
2023-05-10T05:04:16.917Z,99.90
2023-05-10T05:06:44.111Z,99.90
2023-05-10T05:09:11.238Z,99.90
2023-05-10T05:11:38.059Z,99.90
2023-05-10T05:14:04.852Z,99.90
2023-05-10T05:16:33.138Z,99.90
2023-05-10T05:19:01.711Z,99.90
2023-05-10T05:21:28.557Z,99.90
2023-05-10T05:23:57.703Z,99.90
2023-05-10T05:26:24.570Z,99.90
2023-05-10T05:28:54.726Z,99.90
2023-05-10T05:31:22.046Z,99.90
2023-05-10T05:33:48.978Z,99.90
2023-05-10T05:36:15.858Z,99.90
2023-05-10T05:38:42.970Z,99.90
2023-05-10T05:41:09.785Z,99.90
2023-05-10T05:43:38.316Z,99.90
2023-05-10T05:46:05.915Z,99.90
2023-05-10T05:48:32.775Z,99.90
2023-05-10T05:50:59.864Z,99.90
2023-05-10T05:53:26.879Z,99.90
2023-05-10T05:55:58.898Z,99.90
2023-05-10T05:58:26.565Z,99.90
2023-05-10T06:00:54.234Z,99.90
2023-05-10T06:03:21.631Z,99.90
2023-05-10T06:05:48.902Z,99.90
2023-05-10T06:08:16.149Z,99.90
2023-05-10T06:10:42.912Z,99.90
2023-05-10T06:13:09.897Z,99.90
2023-05-10T06:15:36.882Z,99.90
2023-05-10T06:18:03.838Z,99.90
2023-05-10T06:20:32.556Z,99.90
2023-05-10T06:22:59.771Z,99.90
2023-05-10T06:25:26.717Z,99.90
2023-05-10T06:27:58.197Z,99.90
2023-05-10T06:30:28.496Z,99.90
2023-05-10T06:32:56.178Z,99.90
2023-05-10T06:35:23.407Z,99.90
2023-05-10T06:37:50.792Z,99.90
2023-05-10T06:40:17.884Z,99.90
2023-05-10T06:42:46.189Z,99.90
2023-05-10T06:45:13.835Z,99.90
2023-05-10T06:47:41.431Z,99.90
2023-05-10T06:50:15.004Z,99.90
2023-05-10T06:52:41.952Z,99.90
2023-05-10T06:55:09.766Z,99.90
2023-05-10T06:57:36.698Z,99.90
2023-05-10T07:00:07.383Z,99.90
2023-05-10T07:02:34.316Z,99.90
2023-05-10T07:05:03.213Z,99.90
2023-05-10T07:07:30.831Z,99.90
2023-05-10T07:09:58.664Z,99.90
2023-05-10T07:12:26.317Z,99.90
2023-05-10T07:14:53.443Z,99.90
2023-05-10T07:17:20.438Z,99.90
2023-05-10T07:19:47.340Z,99.90
2023-05-10T07:22:14.190Z,99.90
2023-05-10T07:24:41.554Z,99.90
2023-05-10T07:27:08.554Z,99.90
2023-05-10T07:29:35.663Z,99.90
2023-05-10T07:32:02.593Z,99.90
2023-05-10T07:34:31.128Z,99.90
2023-05-10T07:36:59.738Z,99.90
2023-05-10T07:39:28.350Z,99.90
2023-05-10T07:41:56.129Z,99.90
2023-05-10T07:44:23.120Z,99.90
2023-05-10T07:46:50.024Z,99.90
2023-05-10T07:49:17.354Z,99.90
2023-05-10T07:51:44.369Z,99.90
2023-05-10T07:54:11.262Z,99.90
2023-05-10T07:56:38.181Z,99.90
2023-05-10T07:59:06.181Z,99.90
2023-05-10T08:01:34.555Z,99.90
2023-05-10T08:04:02.874Z,99.90
2023-05-10T08:06:31.043Z,99.90
2023-05-10T08:08:58.162Z,99.90
2023-05-10T08:11:25.310Z,99.90
2023-05-10T08:13:52.392Z,99.90
2023-05-10T08:16:19.553Z,99.90
2023-05-10T08:18:48.112Z,99.90
2023-05-10T08:21:15.807Z,99.90
2023-05-10T08:23:44.702Z,99.90
2023-05-10T08:26:11.969Z,99.90
2023-05-10T08:28:38.820Z,99.00
2023-05-10T08:31:06.411Z,97.70
2023-05-10T08:33:33.390Z,97.60
2023-05-10T08:36:00.370Z,98.00
2023-05-10T08:38:27.234Z,95.70
2023-05-10T08:40:59.664Z,95.60
2023-05-10T08:43:30.981Z,93.70
2023-05-10T08:46:02.160Z,94.50
2023-05-10T08:48:30.962Z,94.30
2023-05-10T08:51:00.939Z,93.10
2023-05-10T08:53:29.792Z,93.90
2023-05-10T08:55:56.778Z,93.40
2023-05-10T08:58:23.754Z,90.40
2023-05-10T09:00:53.613Z,88.60
2023-05-10T09:03:20.571Z,87.40
2023-05-10T09:05:47.991Z,88.40
2023-05-10T09:08:17.429Z,89.40
2023-05-10T09:10:50.344Z,90.50
2023-05-10T09:13:18.636Z,92.90
2023-05-10T09:15:46.552Z,93.20
2023-05-10T09:18:13.925Z,92.70
2023-05-10T09:20:41.595Z,93.10
2023-05-10T09:23:08.869Z,93.40
2023-05-10T09:25:36.636Z,92.20
2023-05-10T09:28:06.991Z,93.60
2023-05-10T09:30:33.914Z,93.00
2023-05-10T09:33:01.256Z,92.50
2023-05-10T09:35:32.100Z,90.60
2023-05-10T09:38:02.200Z,89.50
2023-05-10T09:40:30.313Z,90.00
2023-05-10T09:42:57.104Z,90.00
2023-05-10T09:45:32.042Z,87.50
2023-05-10T09:48:00.309Z,88.90
2023-05-10T09:50:27.722Z,90.40
2023-05-10T09:52:58.872Z,89.70
2023-05-10T09:55:40.321Z,86.20
2023-05-10T09:58:13.522Z,86.30
2023-05-10T10:00:42.412Z,86.90
2023-05-10T10:03:17.743Z,87.10
2023-05-10T10:05:45.737Z,86.90
2023-05-10T10:08:13.782Z,90.00
2023-05-10T10:10:41.582Z,90.10
2023-05-10T10:13:10.801Z,91.40
2023-05-10T10:15:37.908Z,92.50
2023-05-10T10:18:06.136Z,93.50
2023-05-10T10:20:33.122Z,94.60
2023-05-10T10:23:00.003Z,94.40
2023-05-10T10:25:27.019Z,94.80
2023-05-10T10:27:53.816Z,95.30
2023-05-10T10:30:43.568Z,95.50
2023-05-10T10:33:37.747Z,95.00
2023-05-10T10:36:05.287Z,94.00
2023-05-10T10:38:39.570Z,94.10
2023-05-10T10:41:38.570Z,94.30
2023-05-10T10:44:23.591Z,93.20
2023-05-10T10:47:25.678Z,92.30
2023-05-10T10:49:58.693Z,92.60
2023-05-10T10:52:30.763Z,93.80
2023-05-10T10:55:25.973Z,94.10
2023-05-10T10:58:01.145Z,92.20
2023-05-10T11:00:38.328Z,91.70
2023-05-10T11:03:08.071Z,92.10
2023-05-10T11:05:45.508Z,91.90
2023-05-10T11:08:26.704Z,91.40
2023-05-10T11:11:01.142Z,91.70
2023-05-10T11:13:42.343Z,92.50
2023-05-10T11:16:22.353Z,92.40
2023-05-10T11:19:10.477Z,91.20
2023-05-10T11:22:04.210Z,90.10
2023-05-10T11:24:31.144Z,90.00
2023-05-10T11:26:58.006Z,90.00
2023-05-10T11:29:27.262Z,90.80
2023-05-10T11:31:57.585Z,91.60
2023-05-10T11:34:34.399Z,91.90
2023-05-10T11:37:01.886Z,92.10
2023-05-10T11:39:30.684Z,91.70
2023-05-10T11:41:58.280Z,93.20
2023-05-10T11:44:32.534Z,92.60
2023-05-10T11:47:01.272Z,92.60
2023-05-10T11:49:28.214Z,91.80
2023-05-10T11:52:08.384Z,93.10
2023-05-10T11:54:36.080Z,93.20
2023-05-10T11:57:03.021Z,93.90
2023-05-10T11:59:30.013Z,93.70
2023-05-10T12:01:56.981Z,95.20
2023-05-10T12:04:24.020Z,96.90
2023-05-10T12:06:50.951Z,98.00
2023-05-10T12:09:23.028Z,97.00
2023-05-10T12:11:58.845Z,96.30
2023-05-10T12:14:25.761Z,96.10
2023-05-10T12:16:52.718Z,95.00
2023-05-10T12:19:21.434Z,95.50
2023-05-10T12:21:48.858Z,95.70
2023-05-10T12:24:18.812Z,94.80
2023-05-10T12:26:46.754Z,94.30
2023-05-10T12:29:18.155Z,95.10
2023-05-10T12:31:55.406Z,95.50
2023-05-10T12:34:26.808Z,95.80
2023-05-10T12:36:54.651Z,94.10
2023-05-10T12:39:21.571Z,95.30
2023-05-10T12:41:48.576Z,94.50
2023-05-10T12:44:15.996Z,91.20
2023-05-10T12:46:42.967Z,90.60
2023-05-10T12:49:10.075Z,91.00
2023-05-10T12:51:36.937Z,91.10
2023-05-10T12:54:04.675Z,89.70
2023-05-10T12:56:31.580Z,90.00
2023-05-10T12:58:58.367Z,90.30
2023-05-10T13:01:25.499Z,88.70
2023-05-10T13:03:52.417Z,83.40
2023-05-10T13:06:19.321Z,78.60
2023-05-10T13:08:46.176Z,80.50
2023-05-10T13:11:17.543Z,80.70
2023-05-10T13:13:44.437Z,79.70
2023-05-10T13:16:11.331Z,81.00
2023-05-10T13:18:38.171Z,79.80
2023-05-10T13:21:06.384Z,81.20
2023-05-10T13:23:33.277Z,84.70
2023-05-10T13:26:00.237Z,84.70
2023-05-10T13:28:27.382Z,80.70
2023-05-10T13:30:54.331Z,76.60
2023-05-10T13:33:21.189Z,70.00
2023-05-10T13:35:48.013Z,67.60
2023-05-10T13:38:15.173Z,63.80
2023-05-10T13:40:42.018Z,63.00
2023-05-10T13:43:08.920Z,64.20
2023-05-10T13:45:35.752Z,62.30
2023-05-10T13:48:02.733Z,62.70
2023-05-10T13:50:29.618Z,64.50
2023-05-10T13:52:56.587Z,64.90
2023-05-10T13:55:23.424Z,65.20
2023-05-10T13:57:50.277Z,66.20
2023-05-10T14:00:17.475Z,64.90
2023-05-10T14:02:44.423Z,66.60
2023-05-10T14:05:11.348Z,66.40
2023-05-10T14:07:38.451Z,67.60
2023-05-10T14:10:06.798Z,69.80
2023-05-10T14:12:33.672Z,71.00
2023-05-10T14:15:00.605Z,71.20
2023-05-10T14:17:27.574Z,71.70
2023-05-10T14:19:54.464Z,73.60
2023-05-10T14:22:21.623Z,74.80
2023-05-10T14:24:48.561Z,76.40
2023-05-10T14:27:16.004Z,78.30
2023-05-10T14:29:43.102Z,78.50
2023-05-10T14:32:10.118Z,80.80
2023-05-10T14:34:37.144Z,82.50
2023-05-10T14:37:03.985Z,82.10
2023-05-10T14:39:31.186Z,82.90
2023-05-10T14:41:58.060Z,83.10
2023-05-10T14:44:25.073Z,82.90
2023-05-10T14:46:52.667Z,81.80
2023-05-10T14:49:19.455Z,82.20
2023-05-10T14:51:46.736Z,83.10
2023-05-10T14:54:13.532Z,83.60
2023-05-10T14:56:42.394Z,83.10
2023-05-10T14:59:09.714Z,83.00
2023-05-10T15:01:38.850Z,82.40
2023-05-10T15:04:06.177Z,83.10
2023-05-10T15:06:35.418Z,83.90
2023-05-10T15:09:04.426Z,84.60
2023-05-10T15:11:31.357Z,85.10
2023-05-10T15:13:58.294Z,86.50
2023-05-10T15:16:27.883Z,87.20
2023-05-10T15:18:54.840Z,84.30
2023-05-10T15:21:22.476Z,87.50
2023-05-10T15:23:49.303Z,88.90
2023-05-10T15:26:16.930Z,91.20
2023-05-10T15:28:43.932Z,91.00
2023-05-10T15:31:11.597Z,90.90
2023-05-10T15:33:39.525Z,91.30
2023-05-10T15:36:07.056Z,89.50
2023-05-10T15:38:34.138Z,90.40
2023-05-10T15:41:01.134Z,91.50
2023-05-10T15:43:28.030Z,91.10
2023-05-10T15:45:54.822Z,90.70
2023-05-10T15:48:21.607Z,90.60
2023-05-10T15:50:48.482Z,91.00
2023-05-10T15:53:15.283Z,91.60
2023-05-10T15:55:42.058Z,92.20
2023-05-10T15:58:08.872Z,92.50
2023-05-10T16:00:35.775Z,92.30
2023-05-10T16:03:02.752Z,92.60
2023-05-10T16:05:32.655Z,93.30
2023-05-10T16:08:00.417Z,93.80
2023-05-10T16:10:27.516Z,94.20
2023-05-10T16:12:55.054Z,94.30
2023-05-10T16:15:22.689Z,94.70
2023-05-10T16:17:49.841Z,94.70
2023-05-10T16:20:17.001Z,94.60
2023-05-10T16:22:44.481Z,93.80
2023-05-10T16:25:13.528Z,93.80
2023-05-10T16:27:41.017Z,93.90
2023-05-10T16:30:08.536Z,94.30
2023-05-10T16:32:35.434Z,94.30
2023-05-10T16:35:02.376Z,94.10
2023-05-10T16:37:29.201Z,94.30
2023-05-10T16:39:56.129Z,94.30
2023-05-10T16:42:24.136Z,93.80
2023-05-10T16:44:51.017Z,93.90
2023-05-10T16:47:18.235Z,95.00
2023-05-10T16:49:45.700Z,94.90
2023-05-10T16:52:12.518Z,95.40
2023-05-10T16:54:39.336Z,96.00
2023-05-10T16:57:06.387Z,96.50
2023-05-10T16:59:33.280Z,97.30
2023-05-10T17:02:00.138Z,97.90
2023-05-10T17:04:27.113Z,98.00
2023-05-10T17:06:54.099Z,98.50
2023-05-10T17:09:20.953Z,98.70
2023-05-10T17:11:47.814Z,99.20
2023-05-10T17:14:14.629Z,99.30
2023-05-10T17:16:42.391Z,99.70
2023-05-10T17:19:09.699Z,99.90
2023-05-10T17:21:36.743Z,99.90
2023-05-10T17:24:03.562Z,99.90
2023-05-10T17:26:30.742Z,99.90
2023-05-10T17:28:57.750Z,99.90
2023-05-10T17:31:24.630Z,99.90
2023-05-10T17:33:51.717Z,98.70
2023-05-10T17:36:18.515Z,98.90
2023-05-10T17:38:45.400Z,99.80
2023-05-10T17:41:12.214Z,99.50
2023-05-10T17:43:38.995Z,99.80
2023-05-10T17:46:05.978Z,99.90
2023-05-10T17:48:33.085Z,99.90
2023-05-10T17:50:59.879Z,99.90
2023-05-10T17:53:26.803Z,99.90
2023-05-10T17:55:54.852Z,99.40
2023-05-10T17:58:21.671Z,99.80
2023-05-10T18:00:48.500Z,99.90
2023-05-10T18:03:15.302Z,99.90
2023-05-10T18:05:42.143Z,99.90
2023-05-10T18:08:09.099Z,99.90
2023-05-10T18:10:38.177Z,99.90
2023-05-10T18:13:08.672Z,99.90
2023-05-10T18:15:36.122Z,99.90
2023-05-10T18:18:04.613Z,99.90
2023-05-10T18:20:32.065Z,99.90
2023-05-10T18:22:59.115Z,99.90
2023-05-10T18:25:26.272Z,99.90
2023-05-10T18:27:53.277Z,99.90
2023-05-10T18:30:20.234Z,99.90
2023-05-10T18:32:47.217Z,99.90
2023-05-10T18:35:14.111Z,99.90
2023-05-10T18:37:41.237Z,99.90
2023-05-10T18:40:14.775Z,99.90
2023-05-10T18:42:41.899Z,99.90
2023-05-10T18:45:09.185Z,99.90
2023-05-10T18:47:35.999Z,99.90
2023-05-10T18:50:07.194Z,99.90
2023-05-10T18:52:34.059Z,99.90
2023-05-10T18:55:01.318Z,99.90
2023-05-10T18:57:28.375Z,99.90
2023-05-10T18:59:55.140Z,99.90
2023-05-10T19:02:22.046Z,99.90
2023-05-10T19:04:49.022Z,99.90
2023-05-10T19:07:15.877Z,99.90
2023-05-10T19:09:42.683Z,99.90
2023-05-10T19:12:09.460Z,99.90
2023-05-10T19:14:36.360Z,99.90
2023-05-10T19:17:03.456Z,99.90
2023-05-10T19:19:30.294Z,99.90
2023-05-10T19:21:57.507Z,99.90
2023-05-10T19:24:25.839Z,99.90
2023-05-10T19:26:52.906Z,99.90
2023-05-10T19:29:19.856Z,99.90
2023-05-10T19:31:47.030Z,99.90
2023-05-10T19:34:13.907Z,99.90
2023-05-10T19:36:41.053Z,99.90
2023-05-10T19:39:07.919Z,99.90
2023-05-10T19:41:34.761Z,99.90
2023-05-10T19:44:01.553Z,99.90
2023-05-10T19:46:28.419Z,99.90
2023-05-10T19:48:55.578Z,99.90
2023-05-10T19:51:22.409Z,99.90
2023-05-10T19:53:49.205Z,99.90
2023-05-10T19:56:18.174Z,99.90
2023-05-10T19:58:45.298Z,99.90
2023-05-10T20:01:12.216Z,99.90
2023-05-10T20:03:39.040Z,99.90
2023-05-10T20:06:05.939Z,99.90
2023-05-10T20:08:32.783Z,99.90
2023-05-10T20:11:02.394Z,99.90
2023-05-10T20:13:29.367Z,99.90
2023-05-10T20:16:02.265Z,99.90
2023-05-10T20:18:29.174Z,99.90
2023-05-10T20:20:59.098Z,99.90
2023-05-10T20:23:26.364Z,99.90
2023-05-10T20:25:54.729Z,99.90
2023-05-10T20:28:26.256Z,99.90
2023-05-10T20:30:54.894Z,99.90
2023-05-10T20:33:22.714Z,99.90
2023-05-10T20:35:51.212Z,99.90
2023-05-10T20:38:18.287Z,99.90
2023-05-10T20:40:45.615Z,99.90
2023-05-10T20:43:12.715Z,99.90
2023-05-10T20:45:39.679Z,99.90
2023-05-10T20:48:06.706Z,99.90
2023-05-10T20:50:33.559Z,99.90
2023-05-10T20:53:01.113Z,99.90
2023-05-10T20:55:28.404Z,99.90
2023-05-10T20:57:55.285Z,99.90
2023-05-10T21:00:22.254Z,99.90
2023-05-10T21:02:49.168Z,99.90
2023-05-10T21:05:17.799Z,99.90
2023-05-10T21:07:44.945Z,99.90
2023-05-10T21:10:12.159Z,99.90
2023-05-10T21:12:39.215Z,99.90
2023-05-10T21:15:06.568Z,99.90
2023-05-10T21:17:33.684Z,99.90
2023-05-10T21:20:00.586Z,99.90
2023-05-10T21:22:27.521Z,99.90
2023-05-10T21:24:54.365Z,99.90
2023-05-10T21:27:21.397Z,99.90
2023-05-10T21:29:49.635Z,99.90
2023-05-10T21:32:16.470Z,99.90
2023-05-10T21:34:43.232Z,99.90
2023-05-10T21:37:10.088Z,99.90
2023-05-10T21:39:36.962Z,99.90
2023-05-10T21:42:04.017Z,99.90
2023-05-10T21:44:32.060Z,99.90
2023-05-10T21:46:59.017Z,99.90
2023-05-10T21:49:27.019Z,99.90
2023-05-10T21:51:53.856Z,99.90
2023-05-10T21:54:20.657Z,99.90
2023-05-10T21:56:47.491Z,99.90
2023-05-10T21:59:14.424Z,99.90
2023-05-10T22:01:41.922Z,99.90
2023-05-10T22:04:08.882Z,99.90
2023-05-10T22:06:36.147Z,99.90
2023-05-10T22:09:04.329Z,99.90
2023-05-10T22:11:31.485Z,99.90
2023-05-10T22:13:58.760Z,99.90
2023-05-10T22:16:25.732Z,99.90
2023-05-10T22:18:54.448Z,99.90
2023-05-10T22:21:21.621Z,99.90
2023-05-10T22:23:48.447Z,99.90
2023-05-10T22:26:15.606Z,99.90
2023-05-10T22:28:42.474Z,99.90
2023-05-10T22:31:11.561Z,99.90
2023-05-10T22:33:38.561Z,99.90
2023-05-10T22:36:06.136Z,99.90
2023-05-10T22:38:32.965Z,99.90
2023-05-10T22:40:59.739Z,99.90
2023-05-10T22:43:26.554Z,99.90
2023-05-10T22:45:53.637Z,99.90
2023-05-10T22:48:21.204Z,99.90
2023-05-10T22:50:48.029Z,99.90
2023-05-10T22:53:14.841Z,99.90
2023-05-10T22:55:41.749Z,99.90
2023-05-10T22:58:08.713Z,99.90
2023-05-10T23:00:35.495Z,99.90
2023-05-10T23:03:02.448Z,99.90
2023-05-10T23:05:29.347Z,99.90
2023-05-10T23:07:56.135Z,99.90
2023-05-10T23:10:23.112Z,99.90
2023-05-10T23:12:49.977Z,99.90
2023-05-10T23:15:16.782Z,99.90
2023-05-10T23:17:43.646Z,99.90
2023-05-10T23:20:11.352Z,99.90
2023-05-10T23:22:38.450Z,99.90
2023-05-10T23:25:05.973Z,99.90
2023-05-10T23:27:32.975Z,99.90
2023-05-10T23:29:59.808Z,99.90
2023-05-10T23:32:26.684Z,99.90
2023-05-10T23:34:53.845Z,99.90
2023-05-10T23:37:20.709Z,99.90
2023-05-10T23:39:47.781Z,99.90
2023-05-10T23:42:14.584Z,99.90
2023-05-10T23:44:41.475Z,99.90
2023-05-10T23:47:08.550Z,99.90
2023-05-10T23:49:35.453Z,99.90
2023-05-10T23:52:02.542Z,99.90
2023-05-10T23:54:29.565Z,99.90
2023-05-10T23:56:56.391Z,99.90
2023-05-10T23:59:23.193Z,99.90
